Latest Weather Observations for Christmas Creek

IDW60801

Issued at 1:05 pm WST Friday 25 April 2014 (issued every 30 minutes, with the page automatically refreshed every 10 minutes)

About weather observations | Map of weather stations | Latest weather observations for WA | Other Formats
Station Details ID: 505049 Name: CHRISTMAS CREEK Lat: -22.36 Lon: 119.65 Height: 437.21 m
Data from the previous 72 hours. | See also: Recent months for locations in Western Australia
Date/Time
WST
Temp
°C
App
Temp
°C
Dew
Point
Rel
Hum
%
Delta-T
°C
Wind Press
QNH
hPa
Press
MSL
hPa
Rain
since 9 am
mm
Dir
 
Spd
km/h
Gust
km/h
Spd
kts
Gust
kts
25/01:00pm 34.5 29.4 3.3 14 16.5 NW 19 28 10 15 1010.7 1008.2 0.0
25/12:30pm 34.7 29.4 2.8 13 16.8 N 20 28 11 15 1011.3 - 0.0
25/12:00pm 34.4 29.3 3.3 14 16.5 N 19 30 10 16 1011.7 1009.2 0.0
25/11:30am 33.9 28.8 3.0 14 16.2 N 19 32 10 17 1012.2 - 0.0
25/11:00am 33.5 28.4 3.0 14 16.0 N 19 24 10 13 1012.4 1009.9 0.0
25/10:30am 33.1 28.1 3.6 15 15.6 NNW 19 28 10 15 1012.9 - 0.0
25/10:00am 32.1 30.4 5.8 19 14.3 W 4 11 2 6 1013.3 1010.8 0.0
25/09:30am 30.5 28.6 6.9 22 13.0 SE 6 9 3 5 1013.7 - 0.0
25/09:00am 29.4 27.7 7.7 25 12.0 SE 6 7 3 4 1013.8 1011.3 0.0
25/08:30am 28.4 26.7 7.6 27 11.4 SSW 6 9 3 5 1013.7 - 0.0
25/08:00am 27.5 26.6 7.6 28 10.9 NNW 2 6 1 3 1013.6 1011.1 0.0
25/07:30am 24.6 23.9 8.4 35 8.8 N 2 6 1 3 1013.5 - 0.0
25/07:00am 22.2 20.6 8.0 40 7.6 N 6 7 3 4 1013.1 1010.7 0.0
25/06:30am 21.9 20.6 7.5 39 7.6 N 4 6 2 3 1012.8 - 0.0
25/06:00am 21.2 19.2 7.2 40 7.3 N 7 11 4 6 1012.6 1010.1 0.0
25/05:30am 22.0 20.6 7.4 39 7.7 NW 4 6 2 3 1012.5 - 0.0
25/05:00am 23.0 20.0 7.5 37 8.3 N 13 17 7 9 1012.2 1009.7 0.0
25/04:30am 22.9 20.2 7.3 36 8.3 N 11 11 6 6 1012.2 - 0.0
25/04:00am 23.1 20.4 7.4 36 8.4 N 11 13 6 7 1012.0 1009.5 0.0
25/03:30am 22.9 20.9 7.2 36 8.3 N 7 9 4 5 1012.0 - 0.0
25/03:00am 23.3 21.3 7.2 35 8.6 N 7 7 4 4 1012.0 1009.5 0.0
25/02:30am 23.8 21.1 7.2 34 8.8 N 11 11 6 6 1012.1 - 0.0
25/02:00am 24.8 22.4 7.0 32 9.5 N 9 11 5 6 1012.1 1009.6 0.0
25/01:30am 26.1 23.6 6.6 28 10.4 NW 9 13 5 7 1012.2 - 0.0
25/01:00am 25.3 22.4 6.4 29 10.0 N 11 15 6 8 1012.2 1009.7 0.0
25/12:30am 25.8 22.4 5.8 27 10.5 N 13 15 7 8 1012.3 - 0.0
25/12:00am 26.3 23.2 5.7 26 10.8 N 11 13 6 7 1012.5 1010.0 0.0
 
Date/Time
WST
Temp
°C
App
Temp
°C
Dew
Point
Rel
Hum
%
Delta-T
°C
Wind Press
QNH
hPa
Press
MSL
hPa
Rain
since 9 am
mm
Dir
 
Spd
km/h
Gust
km/h
Spd
kts
Gust
kts
24/11:30pm 27.7 24.7 6.0 25 11.6 N 11 15 6 8 1012.8 - 0.0
24/11:00pm 28.5 24.6 5.5 23 12.2 NW 15 19 8 10 1012.8 1010.4 0.0
24/10:30pm 29.1 24.7 4.5 21 12.9 NNW 17 22 9 12 1012.8 - 0.0
24/10:00pm 28.9 23.8 3.3 19 13.1 N 19 22 10 12 1013.0 1010.6 0.0
24/09:30pm 28.8 26.0 3.4 19 13.0 N 7 9 4 5 1012.9 - 0.0
24/09:00pm 29.5 26.3 3.0 18 13.6 N 9 11 5 6 1013.0 1010.6 0.0
24/08:30pm 30.5 27.2 2.7 17 14.2 N 9 11 5 6 1012.9 - 0.0
24/08:00pm 30.3 27.5 3.0 17 14.0 N 7 11 4 6 1012.7 1010.2 0.0
24/07:30pm 30.7 27.5 3.0 17 14.3 N 9 11 5 6 1012.3 - 0.0
24/07:00pm 31.1 27.9 2.9 16 14.6 N 9 9 5 5 1012.0 1009.5 0.0
24/06:30pm 32.1 28.8 2.5 15 15.3 N 9 11 5 6 1011.6 - 0.0
24/06:00pm 32.7 29.4 2.3 14 15.7 N 9 11 5 6 1011.2 1008.7 0.0
24/05:30pm 33.6 29.5 2.2 13 16.2 NNE 13 19 7 10 1010.9 - 0.0
24/05:00pm 34.0 30.2 1.9 13 16.6 NNE 11 19 6 10 1010.5 1008.0 0.0
24/04:30pm 34.7 30.6 2.0 12 17.0 NE 13 19 7 10 1010.3 - 0.0
24/04:00pm 34.8 30.2 1.7 12 17.1 NNE 15 26 8 14 1010.2 1007.7 0.0
24/03:30pm 35.4 30.8 1.8 12 17.5 NNW 15 24 8 13 1010.1 - 0.0
24/03:00pm 35.0 30.8 1.6 12 17.3 N 13 24 7 13 1010.1 1007.6 0.0
24/02:30pm 35.7 30.8 1.8 12 17.6 NNW 17 28 9 15 1010.3 - 0.0
24/02:00pm 35.0 29.6 1.4 12 17.3 NNE 19 30 10 16 1010.5 1008.0 0.0
24/01:30pm 35.2 29.6 1.4 12 17.4 ENE 20 26 11 14 1011.0 - 0.0
24/01:00pm 34.1 30.2 1.1 12 16.8 ENE 11 19 6 10 1011.4 1008.9 0.0
24/12:30pm 34.5 29.1 1.1 12 17.1 NNE 19 28 10 15 1011.9 - 0.0
24/12:00pm 34.5 28.5 0.9 12 17.1 N 22 33 12 18 1012.4 1009.9 0.0
24/11:30am 33.8 27.4 0.7 12 16.7 NNE 24 39 13 21 1013.0 - 0.0
24/11:00am 33.1 26.7 0.9 13 16.3 N 24 35 13 19 1013.9 1011.4 0.0
24/10:30am 33.1 26.4 1.2 13 16.2 NNE 26 35 14 19 1014.2 - 0.0
24/10:00am 32.1 26.1 1.1 14 15.6 N 22 30 12 16 1014.6 1012.1 0.0
24/09:30am 31.0 25.0 1.3 15 14.9 NNE 22 33 12 18 1014.8 - 0.0
24/09:00am 29.5 24.6 2.0 17 13.8 NE 17 22 9 12 1014.9 1012.5 0.0
24/08:30am 28.2 24.5 2.1 18 13.0 N 11 17 6 9 1014.9 - 0.0
24/08:00am 25.7 23.7 4.3 25 10.9 ESE 4 6 2 3 1014.6 1012.1 0.0
24/07:30am 24.1 23.3 8.1 36 8.7 SE 2 6 1 3 1014.3 - 0.0
24/07:00am 23.7 22.1 6.5 33 9.0 E 4 4 2 2 1014.0 1011.5 0.0
24/06:30am 23.1 21.4 6.0 33 8.9 SE 4 6 2 3 1013.9 - 0.0
24/06:00am 23.2 20.9 2.7 26 10.0 SW 4 4 2 2 1013.7 1011.2 0.0
24/05:30am 23.9 20.2 2.4 24 10.5 N 11 15 6 8 1013.3 - 0.0
24/05:00am 23.5 19.0 2.3 25 10.3 N 15 19 8 10 1012.8 1010.4 0.0
24/04:30am 23.8 19.3 2.2 24 10.5 N 15 19 8 10 1012.6 - 0.0
24/04:00am 23.4 18.9 2.2 25 10.3 N 15 19 8 10 1012.5 1010.0 0.0
24/03:30am 24.1 19.2 2.1 23 10.7 N 17 19 9 10 1012.6 - 0.0
24/03:00am 24.1 19.2 2.1 23 10.7 N 17 20 9 11 1012.7 1010.2 0.0
24/02:30am 23.7 18.8 2.1 24 10.5 N 17 19 9 10 1012.8 - 0.0
24/02:00am 24.5 19.0 2.0 23 10.9 N 20 24 11 13 1012.9 1010.5 0.0
24/01:30am 25.8 20.9 1.9 21 11.7 NNE 17 19 9 10 1013.1 - 0.0
24/01:00am 24.7 20.6 2.1 23 11.0 N 13 15 7 8 1013.5 1011.0 0.0
24/12:30am 25.3 21.2 2.0 22 11.4 NNE 13 15 7 8 1013.6 - 0.0
24/12:00am 25.1 21.3 2.0 22 11.3 N 11 11 6 6 1013.8 1011.3 0.0
 
Date/Time
WST
Temp
°C
App
Temp
°C
Dew
Point
Rel
Hum
%
Delta-T
°C
Wind Press
QNH
hPa
Press
MSL
hPa
Rain
since 9 am
mm
Dir
 
Spd
km/h
Gust
km/h
Spd
kts
Gust
kts
23/11:30pm 25.0 21.3 2.1 22 11.2 N 11 11 6 6 1014.1 - 0.0
23/11:00pm 25.2 21.5 2.3 22 11.3 NNE 11 15 6 8 1014.3 1011.8 0.0
23/10:30pm 25.7 22.4 2.4 22 11.5 NNE 9 17 5 9 1014.5 - 0.0
23/10:00pm 25.7 23.1 3.2 23 11.3 N 6 9 3 5 1014.6 1012.1 0.0
23/09:30pm 24.6 22.1 3.5 25 10.6 NNW 6 7 3 4 1014.7 - 0.0
23/09:00pm 25.7 22.8 2.8 22 11.4 NNE 7 9 4 5 1014.9 1012.5 0.0
23/08:30pm 26.8 24.5 2.9 21 12.0 NNE 4 6 2 3 1014.9 - 0.0
23/08:00pm 26.5 24.7 3.2 22 11.7 WNW 2 4 1 2 1014.7 1012.2 0.0
23/07:30pm 27.2 25.3 2.7 20 12.3 E 2 6 1 3 1014.5 - 0.0
23/07:00pm 28.0 25.7 2.6 19 12.8 N 4 6 2 3 1014.2 1011.7 0.0
23/06:30pm 29.1 26.4 2.4 18 13.5 NNW 6 7 3 4 1013.8 - 0.0
23/06:00pm 30.9 27.9 2.0 16 14.7 NNW 7 7 4 4 1013.4 1010.9 0.0
23/05:30pm 33.2 30.3 1.4 13 16.2 N 6 9 3 5 1012.8 - 0.0
23/05:00pm 34.2 31.6 1.1 12 16.9 WNW 4 7 2 4 1012.4 1009.9 0.0
23/04:30pm 33.8 29.5 0.8 12 16.7 NNE 13 20 7 11 1012.3 - 0.0
23/04:00pm 34.3 30.4 1.2 12 16.9 NNW 11 19 6 10 1012.2 1009.7 0.0
23/03:30pm 34.3 29.2 1.0 12 17.0 N 17 26 9 14 1012.1 - 0.0
23/03:00pm 33.7 30.1 0.8 12 16.7 NE 9 22 5 12 1012.1 1009.6 0.0
23/02:30pm 34.4 29.4 1.2 12 17.0 ENE 17 24 9 13 1012.3 - 0.0
23/02:00pm 34.6 31.0 0.9 12 17.2 NW 9 24 5 13 1012.6 1010.1 0.0
23/01:30pm 33.9 30.7 0.8 12 16.8 ENE 7 13 4 7 1013.0 - 0.0
23/01:00pm 33.7 28.2 0.8 12 16.7 NNW 19 22 10 12 1013.4 1010.9 0.0
23/12:30pm 34.1 28.5 1.0 12 16.8 NNE 20 32 11 17 1013.8 - 0.0
23/12:00pm 33.6 28.9 1.1 12 16.5 NNW 15 26 8 14 1014.4 1011.9 0.0
23/11:30am 32.7 26.3 1.0 13 16.0 N 24 37 13 20 1014.8 - 0.0
23/11:00am 32.7 25.9 0.8 13 16.0 N 26 35 14 19 1015.2 1012.8 0.0
23/10:30am 31.8 25.4 1.1 14 15.4 N 24 35 13 19 1015.5 - 0.0
23/10:00am 31.2 24.4 0.9 14 15.1 N 26 35 14 19 1016.0 1013.5 0.0
23/09:30am 30.9 24.5 1.0 14 14.9 NNE 24 33 13 18 1016.0 - 0.0
23/09:00am 30.2 24.3 1.7 16 14.3 NNE 22 28 12 15 1016.0 1013.5 0.0
23/08:30am 28.7 24.1 1.7 17 13.4 NNE 15 22 8 12 1016.1 - 0.0
23/08:00am 27.2 24.9 3.0 21 12.2 NE 4 7 2 4 1016.1 1013.6 0.0
23/07:30am 24.0 21.4 4.0 27 10.1 NE 7 24 4 13 1015.8 - 0.0
23/07:00am 20.6 18.4 3.4 32 8.3 NNE 4 15 2 8 1015.3 1012.9 0.0
23/06:30am 19.7 16.9 2.1 31 8.3 N 6 7 3 4 1015.0 - 0.0
23/06:00am 19.4 17.0 2.1 31 8.1 NNE 4 6 2 3 1014.8 1012.3 0.0
23/05:30am 19.8 17.4 2.0 30 8.4 N 4 6 2 3 1014.7 - 0.0
23/05:00am 20.3 18.2 1.7 29 8.7 NE 2 6 1 3 1014.6 1012.1 0.0
23/04:30am 21.4 18.5 1.5 26 9.4 N 6 9 3 5 1014.6 - 0.0
23/04:00am 21.6 17.8 1.6 26 9.5 N 11 13 6 7 1014.4 1011.9 0.0
23/03:30am 22.0 18.5 1.4 25 9.7 N 9 13 5 7 1014.4 - 0.0
23/03:00am 22.0 18.9 1.2 25 9.8 WSW 7 11 4 6 1014.6 1012.1 0.0
23/02:30am 23.4 19.1 1.1 23 10.6 N 13 15 7 8 1014.4 - 0.0
23/02:00am 23.5 18.5 1.1 23 10.6 N 17 20 9 11 1014.4 1011.9 0.0
23/01:30am 24.9 19.3 1.0 21 11.4 N 20 28 11 15 1014.7 - 0.0
23/01:00am 23.7 18.7 1.1 22 10.7 N 17 19 9 10 1014.7 1012.2 0.0
23/12:30am 24.1 19.4 1.2 22 10.9 N 15 19 8 10 1015.0 - 0.0
23/12:00am 24.4 19.8 1.4 22 11.0 N 15 17 8 9 1015.2 1012.8 0.0
 
Date/Time
WST
Temp
°C
App
Temp
°C
Dew
Point
Rel
Hum
%
Delta-T
°C
Wind Press
QNH
hPa
Press
MSL
hPa
Rain
since 9 am
mm
Dir
 
Spd
km/h
Gust
km/h
Spd
kts
Gust
kts
22/11:30pm 24.6 20.8 1.9 22 11.0 NNE 11 15 6 8 1015.3 - 0.0
22/11:00pm 26.1 21.1 1.6 20 12.0 N 17 19 9 10 1015.4 1013.0 0.0
22/10:30pm 25.5 21.4 2.2 22 11.5 N 13 15 7 8 1015.4 - 0.0
22/10:00pm 26.7 22.6 2.0 20 12.2 NNE 13 15 7 8 1015.5 1013.1 0.0
22/09:30pm 25.6 22.9 2.9 23 11.3 NNE 6 9 3 5 1015.7 - 0.0
22/09:00pm 25.8 23.3 3.9 24 11.1 NNE 6 9 3 5 1015.5 1013.1 0.0
22/08:30pm 26.9 24.3 4.1 23 11.7 NNE 7 9 4 5 1015.4 - 0.0
22/08:00pm 27.0 24.6 4.3 23 11.7 N 6 11 3 6 1015.3 1012.9 0.0
22/07:30pm 27.9 25.4 4.0 21 12.3 N 6 7 3 4 1015.0 - 0.0
22/07:00pm 28.8 25.8 4.2 21 12.8 N 9 11 5 6 1014.8 1012.3 0.0
22/06:30pm 30.2 27.7 3.6 18 13.8 W 6 6 3 3 1014.6 - 0.0
22/06:00pm 31.9 29.4 3.8 17 14.8 SSE 6 9 3 5 1014.2 1011.7 0.0
22/05:30pm 32.8 29.1 4.2 16 15.2 S 13 19 7 10 1013.9 - 0.0
22/05:00pm 33.7 29.9 3.9 15 15.9 SSE 13 20 7 11 1013.7 1011.2 0.0
22/04:30pm 34.7 31.9 2.0 12 17.0 W 6 7 3 4 1013.6 - 0.0
22/04:00pm 34.6 31.2 1.8 12 17.0 NNW 9 15 5 8 1013.4 1010.9 0.0
22/03:30pm 35.2 32.3 2.4 12 17.2 WNW 7 15 4 8 1013.3 - 0.0
22/03:00pm 34.6 30.9 2.2 13 16.9 NNW 11 22 6 12 1013.4 1010.9 0.0
22/02:30pm 35.2 32.5 2.4 12 17.2 WNW 6 17 3 9 1013.5 - 0.0
22/02:00pm 34.2 31.8 2.2 13 16.6 N 4 9 2 5 1013.8 1011.3 0.0
22/01:30pm 34.0 30.7 2.5 13 16.4 NNW 9 19 5 10 1013.9 - 0.0

Other Formats:

Comma delimited format used in spreadsheet applications
http://www.bom.gov.au/fwo/IDW60801/IDW60801.99737.axf

JavaScript Object Notation format (JSON) in row-major order
http://www.bom.gov.au/fwo/IDW60801/IDW60801.99737.json